Gustavus Airport
PAGS : now visible

Airfield :











YOU CAN JOIN US ON...

 
LOGIN :

Register | Disclaimer

   EN    FR    IT 

 









Legend :    VFR   Marginal VFR   IFR   Intensive IFR   Very Intensive IFR
Visi :
Ceiling :
>= 8 km
>= 3000ft
5 to 8 km
1000 to 3000 ft
1500m to 5 km
500 to 1000 ft
800 to 1500m
200 to 500 ft
< 800m
< 200 ft
Symbols :   Thunderstorms  Fog  Heavy snow  Heavy precipitations  Wind > 20 kt






- Airport Elevation : 35 ft
- IATA code : GST


PAGS - Gustavus

CURRENT METAR :
  • 172105Z AUTO 33005KT 4SM -SN BR OVC017 00/M01 A3034 RMK AO2 P0000 FZRANO

EXPIRED METARs :
  • 172056Z AUTO 33004KT 2 1/2SM -SN BR FEW008 SCT013 OVC019 00/M01 A3034 RMK AO2 UPE22SNB05E20B22 SLP273 P0000 60000 T00001006 53008 FZRANO
  • 172049Z AUTO 32004KT 2SM -SN BR FEW008 SCT013 OVC019 00/M01 A3034 RMK AO2 UPE22SNB05E20B22 P0000 FZRANO
  • 172029Z AUTO 31003KT 3SM -SN BR FEW008 BKN013 OVC019 01/M01 A3033 RMK AO2 UPE22SNB05E20B22 P0000 FZRANO
  • 171956Z AUTO 32003KT 10SM UP SCT006 SCT013 OVC019 00/M01 A3033 RMK AO2 UPE13B36RAB13E18SNB18E36 SLP269 P0000 T00001011 FZRANO
  • 171939Z AUTO 33004KT 10SM UP SCT006 BKN015 OVC031 00/M01 A3032 RMK AO2 UPE13B36RAB13E18SNB18E36 P0000 FZRANO
  • 171856Z AUTO 00000KT 10SM UP BKN015 BKN023 OVC039 00/M01 A3031 RMK AO2 UPB05SNE05 SLP265 P0000 T00001011 FZRANO
  • 171839Z AUTO 33003KT 6SM UP BR SCT011 BKN022 OVC031 00/M01 A3032 RMK AO2 UPB05SNE05 P0000 FZRANO

TAF PAGS
Valid from the 17 at 18:00 until the 18 at 18:00 UTC


171722Z 1718/1818 13007KT 6SM -SHSN SCT015 BKN035 OVC040
TEMPO 1718/1721 5SM -FZDZ BR BKN015 OVC035
FM172100 VRB05KT 5SM -SN BR OVC015
FM180000 13006KT 4SM -SN SCT007 OVC015
FM180400 13006KT 2SM -SN BKN007 OVC015
FM180800 14006KT P6SM VCSH SCT007 OVC015 AMD LTD TO CLD VIS AND WIND



MET'MAP, your aeronautical weather chart ! - Copyright ORBIFLY December 2007 - Disclaimer

ORBIFLY MET'MAP TEAM :

Programming & Development : Alexandra Zaïnal
Concept & original design : Baudouin d'Aumeries
Assistance for programming : Marc-Olivier Méhu
Technical & hardware support : Manuel Goepfert

Contact : metmap@orbifly.com




SOURCES & CREDITS :

   NOAA       Earth
Advisory